createdAt,value
2017-10-19T00:00:57.997Z,80.20
2017-10-19T00:03:27.930Z,80.20
2017-10-19T00:05:57.978Z,80.90
2017-10-19T00:08:28.964Z,80.20
2017-10-19T00:10:59.492Z,80.20
2017-10-19T00:13:29.411Z,80.20
2017-10-19T00:15:59.321Z,80.30
2017-10-19T00:18:29.250Z,80.20
2017-10-19T00:20:59.155Z,80.30
2017-10-19T00:23:29.396Z,80.30
2017-10-19T00:28:59.001Z,80.20
2017-10-19T00:31:29.106Z,80.30
2017-10-19T00:34:00.060Z,80.30
2017-10-19T00:36:29.969Z,80.30
2017-10-19T00:38:59.885Z,80.30
2017-10-19T00:41:29.810Z,80.30
2017-10-19T00:43:59.858Z,80.30
2017-10-19T00:46:30.278Z,80.30
2017-10-19T00:49:00.267Z,80.30
2017-10-19T00:51:30.892Z,80.30
2017-10-19T00:54:00.998Z,80.30
2017-10-19T00:56:31.537Z,80.30
2017-10-19T00:59:01.661Z,80.30
2017-10-19T01:01:31.777Z,80.40
2017-10-19T01:04:02.507Z,80.40
2017-10-19T01:06:32.750Z,80.50
2017-10-19T01:09:02.542Z,80.30
2017-10-19T01:11:32.454Z,80.40
2017-10-19T01:14:02.165Z,80.30
2017-10-19T01:16:32.897Z,80.30
2017-10-19T01:19:03.437Z,80.30
2017-10-19T01:21:33.341Z,80.30
2017-10-19T01:24:03.459Z,80.30
2017-10-19T01:26:33.377Z,80.40
2017-10-19T01:29:03.910Z,80.40
2017-10-19T01:31:33.817Z,80.40
2017-10-19T01:34:03.940Z,80.50
2017-10-19T01:36:34.873Z,80.40
2017-10-19T01:39:05.401Z,80.40
2017-10-19T01:41:35.321Z,80.40
2017-10-19T01:44:05.231Z,81.10
2017-10-19T01:46:34.940Z,80.40
2017-10-19T01:49:05.469Z,80.30
2017-10-19T01:51:35.588Z,80.30
2017-10-19T01:54:05.914Z,80.40
2017-10-19T01:56:35.624Z,80.40
2017-10-19T01:59:05.326Z,80.30
2017-10-19T02:01:35.041Z,80.40
2017-10-19T02:04:05.786Z,80.30
2017-10-19T02:06:35.858Z,80.30
2017-10-19T02:09:06.410Z,80.20
2017-10-19T02:11:36.499Z,80.30
2017-10-19T02:14:06.457Z,80.30
2017-10-19T02:16:36.576Z,80.30
2017-10-19T02:19:06.898Z,80.30
2017-10-19T02:21:37.023Z,80.30
2017-10-19T02:24:06.932Z,80.20
2017-10-19T02:26:36.642Z,80.40
2017-10-19T02:29:06.564Z,80.20
2017-10-19T02:31:37.297Z,80.30
2017-10-19T02:34:07.001Z,80.20
2017-10-19T02:36:36.715Z,80.30
2017-10-19T02:39:06.828Z,80.30
2017-10-19T02:41:36.537Z,80.30
2017-10-19T02:44:06.246Z,80.30
2017-10-19T02:46:35.958Z,80.30
2017-10-19T02:49:06.076Z,80.30
2017-10-19T02:51:35.989Z,80.30
2017-10-19T02:54:16.309Z,80.40
2017-10-19T02:56:47.083Z,80.40
2017-10-19T02:59:16.998Z,80.30
2017-10-19T03:01:46.916Z,80.40
2017-10-19T03:04:16.809Z,80.30
2017-10-19T03:06:46.740Z,80.30
2017-10-19T03:09:16.839Z,80.30
2017-10-19T03:11:46.641Z,80.30
2017-10-19T03:14:16.483Z,80.40
2017-10-19T03:16:46.603Z,80.20
2017-10-19T03:19:17.282Z,80.30
2017-10-19T03:21:47.249Z,80.30
2017-10-19T03:24:16.963Z,80.30
2017-10-19T03:26:47.486Z,80.20
2017-10-19T03:29:18.014Z,80.30
2017-10-19T03:31:47.930Z,80.30
2017-10-19T03:34:18.639Z,80.10
2017-10-19T03:36:48.586Z,80.10
2017-10-19T03:39:18.696Z,80.30
2017-10-19T03:41:48.411Z,80.30
2017-10-19T03:44:18.385Z,80.30
2017-10-19T03:46:48.439Z,80.50
2017-10-19T03:49:18.355Z,80.40
2017-10-19T03:51:48.882Z,80.50
2017-10-19T03:54:19.617Z,80.50
2017-10-19T03:56:49.529Z,80.40
2017-10-19T03:59:19.445Z,80.40
2017-10-19T04:01:49.564Z,80.50
2017-10-19T04:04:19.481Z,80.40
2017-10-19T04:06:49.188Z,80.40
2017-10-19T04:09:19.996Z,80.70
2017-10-19T04:11:50.039Z,80.70
2017-10-19T04:14:19.955Z,80.80
2017-10-19T04:16:49.664Z,80.60
2017-10-19T04:19:20.393Z,80.70
2017-10-19T04:21:50.209Z,80.70
2017-10-19T04:24:20.299Z,80.60
2017-10-19T04:26:50.138Z,80.50
2017-10-19T04:29:20.054Z,80.50
2017-10-19T04:31:49.763Z,80.60
2017-10-19T04:34:19.677Z,80.70
2017-10-19T04:36:49.593Z,80.60
2017-10-19T04:39:19.508Z,80.70
2017-10-19T04:41:50.038Z,80.70
2017-10-19T04:44:19.951Z,80.60
2017-10-19T04:46:49.863Z,80.70
2017-10-19T04:49:20.604Z,80.70
2017-10-19T04:51:50.514Z,80.60
2017-10-19T04:54:20.831Z,80.70
2017-10-19T04:56:50.751Z,80.70
2017-10-19T04:59:20.611Z,80.70
2017-10-19T05:01:50.475Z,80.70
2017-10-19T05:04:21.207Z,80.60
2017-10-19T05:06:51.138Z,80.60
2017-10-19T05:09:21.038Z,80.60
2017-10-19T05:11:50.953Z,80.60
2017-10-19T05:14:21.038Z,80.70
2017-10-19T05:16:50.782Z,80.80
2017-10-19T05:19:20.695Z,80.80
2017-10-19T05:21:50.618Z,80.70
2017-10-19T05:24:20.525Z,80.70
2017-10-19T05:26:51.304Z,80.80
2017-10-19T05:29:21.275Z,80.80
2017-10-19T05:31:52.008Z,80.80
2017-10-19T05:34:22.111Z,80.70
2017-10-19T05:36:53.476Z,80.70
2017-10-19T05:39:24.006Z,80.70
2017-10-19T05:41:54.123Z,80.70
2017-10-19T05:44:24.649Z,80.80
2017-10-19T05:46:54.564Z,80.80
2017-10-19T05:49:24.686Z,80.90
2017-10-19T05:51:54.789Z,80.90
2017-10-19T05:54:24.715Z,80.90
2017-10-19T05:56:54.835Z,80.90
2017-10-19T05:59:26.378Z,80.80
2017-10-19T06:01:56.524Z,80.80
2017-10-19T06:04:26.773Z,80.80
2017-10-19T06:06:56.736Z,80.90
2017-10-19T06:09:26.840Z,81.00
2017-10-19T06:11:56.989Z,80.90
2017-10-19T06:14:26.900Z,81.00
2017-10-19T06:16:56.609Z,81.00
2017-10-19T06:19:26.520Z,80.90
2017-10-19T06:21:56.233Z,81.00
2017-10-19T06:24:26.144Z,81.00
2017-10-19T06:26:55.957Z,81.00
2017-10-19T06:29:26.075Z,81.00
2017-10-19T06:31:55.990Z,81.00
2017-10-19T06:34:25.895Z,81.00
2017-10-19T06:36:57.251Z,81.00
2017-10-19T06:39:28.190Z,81.10
2017-10-19T06:41:59.696Z,81.30
2017-10-19T06:44:29.661Z,81.30
2017-10-19T06:47:00.567Z,81.30
2017-10-19T06:49:30.404Z,81.30
2017-10-19T06:52:00.223Z,81.30
2017-10-19T06:54:30.544Z,81.40
2017-10-19T06:57:00.604Z,81.40
2017-10-19T06:59:30.578Z,81.40
2017-10-19T07:02:00.720Z,81.40
2017-10-19T07:04:30.911Z,81.50
2017-10-19T07:07:01.051Z,81.50
2017-10-19T07:09:30.853Z,81.50
2017-10-19T07:12:02.199Z,81.50
2017-10-19T07:14:32.942Z,81.50
2017-10-19T07:17:03.402Z,81.50
2017-10-19T07:19:34.680Z,81.50
2017-10-19T07:22:04.722Z,81.50
2017-10-19T07:24:34.638Z,81.30
2017-10-19T07:27:04.793Z,81.40
2017-10-19T07:29:34.875Z,81.40
2017-10-19T07:32:04.995Z,81.50
2017-10-19T07:34:34.909Z,81.40
2017-10-19T07:37:06.318Z,82.20
2017-10-19T07:39:36.537Z,81.50
2017-10-19T07:42:06.291Z,81.50
2017-10-19T07:44:36.413Z,81.70
2017-10-19T07:47:06.660Z,81.80
2017-10-19T07:49:36.635Z,81.80
2017-10-19T07:52:06.882Z,82.10
2017-10-19T07:54:37.873Z,82.60
2017-10-19T07:57:07.824Z,82.50
2017-10-19T07:59:37.945Z,82.80
2017-10-19T08:02:09.083Z,82.70
2017-10-19T08:04:41.660Z,82.70
2017-10-19T08:07:14.443Z,82.70
2017-10-19T08:09:44.527Z,82.80
2017-10-19T08:12:14.681Z,82.60
2017-10-19T08:14:45.005Z,82.80
2017-10-19T08:17:15.328Z,82.80
2017-10-19T08:19:45.578Z,82.50
2017-10-19T08:22:15.567Z,82.20
2017-10-19T08:24:45.674Z,81.90
2017-10-19T08:27:16.827Z,81.70
2017-10-19T08:29:46.933Z,81.70
2017-10-19T08:32:17.610Z,81.60
2017-10-19T08:34:47.599Z,81.70
2017-10-19T08:37:17.673Z,81.50
2017-10-19T08:39:47.488Z,81.50
2017-10-19T08:42:17.533Z,81.60
2017-10-19T08:44:47.401Z,81.50
2017-10-19T08:47:17.345Z,81.40
2017-10-19T08:49:47.287Z,81.30
2017-10-19T08:52:18.159Z,81.30
2017-10-19T08:54:48.249Z,81.20
2017-10-19T08:57:18.873Z,81.20
2017-10-19T08:59:49.361Z,81.20
2017-10-19T09:02:19.321Z,81.30
2017-10-19T09:04:49.234Z,81.00
2017-10-19T09:07:19.141Z,81.80
2017-10-19T09:09:49.247Z,81.30
2017-10-19T09:12:19.514Z,81.30
2017-10-19T09:14:49.622Z,81.90
2017-10-19T09:17:19.727Z,81.00
2017-10-19T09:19:50.227Z,81.00
2017-10-19T09:22:20.164Z,81.40
2017-10-19T09:24:50.168Z,80.80
2017-10-19T09:27:20.402Z,80.90
2017-10-19T09:29:50.522Z,80.80
2017-10-19T09:32:20.445Z,81.00
2017-10-19T09:34:50.715Z,80.90
2017-10-19T09:37:20.572Z,80.60
2017-10-19T09:39:50.571Z,81.10
2017-10-19T09:42:20.913Z,80.80
2017-10-19T09:44:51.195Z,81.00
2017-10-19T09:47:20.946Z,80.50
2017-10-19T09:49:51.020Z,80.70
2017-10-19T09:52:21.183Z,80.60
2017-10-19T09:54:51.264Z,80.70
2017-10-19T09:57:21.432Z,80.40
2017-10-19T09:59:51.542Z,80.80
2017-10-19T10:02:21.666Z,80.40
2017-10-19T10:04:51.576Z,80.30
2017-10-19T10:07:22.192Z,80.30
2017-10-19T10:09:52.021Z,80.10
2017-10-19T10:12:22.087Z,79.70
2017-10-19T10:14:52.204Z,79.70
2017-10-19T10:17:22.331Z,79.70
2017-10-19T10:19:52.881Z,79.80
2017-10-19T10:22:23.228Z,79.40
2017-10-19T10:24:53.928Z,79.70
2017-10-19T10:27:24.074Z,79.80
2017-10-19T10:29:54.610Z,79.70
2017-10-19T10:32:24.903Z,79.00
2017-10-19T10:34:55.224Z,79.60
2017-10-19T10:37:25.173Z,79.40
2017-10-19T10:39:55.909Z,79.60
2017-10-19T10:42:25.977Z,79.00
2017-10-19T10:44:55.938Z,79.10
2017-10-19T10:47:26.875Z,79.20
2017-10-19T10:49:57.000Z,79.10
2017-10-19T10:52:27.283Z,78.80
2017-10-19T10:54:57.848Z,78.70
2017-10-19T10:57:28.480Z,79.60
2017-10-19T10:59:58.392Z,78.70
2017-10-19T11:02:28.671Z,79.20
2017-10-19T11:04:58.839Z,79.40
2017-10-19T11:07:28.885Z,79.40
2017-10-19T11:09:59.228Z,79.00
2017-10-19T11:12:29.400Z,78.50
2017-10-19T11:14:59.729Z,79.30
2017-10-19T11:17:29.816Z,79.40
2017-10-19T11:19:59.917Z,78.70
2017-10-19T11:22:30.749Z,79.00
2017-10-19T11:25:01.808Z,79.00
2017-10-19T11:27:31.958Z,79.00
2017-10-19T11:30:02.898Z,78.80
2017-10-19T11:32:33.031Z,79.00
2017-10-19T11:35:03.952Z,78.80
2017-10-19T11:37:34.028Z,79.20
2017-10-19T11:40:04.196Z,79.40
2017-10-19T11:42:35.025Z,79.20
2017-10-19T11:45:05.354Z,79.20
2017-10-19T11:47:35.266Z,79.90
2017-10-19T11:50:05.420Z,79.90
2017-10-19T11:52:35.468Z,79.40
2017-10-19T11:55:05.623Z,79.20
2017-10-19T11:57:35.643Z,79.60
2017-10-19T12:00:06.479Z,79.70
2017-10-19T12:02:37.480Z,79.50
2017-10-19T12:05:07.838Z,79.40
2017-10-19T12:07:38.363Z,79.60
2017-10-19T12:10:08.661Z,80.10
2017-10-19T12:12:38.982Z,79.70
2017-10-19T12:15:09.749Z,79.60
2017-10-19T12:17:39.878Z,79.60
2017-10-19T12:20:10.358Z,79.70
2017-10-19T12:22:40.904Z,79.70
2017-10-19T12:25:10.998Z,80.10
2017-10-19T12:27:41.166Z,80.00
2017-10-19T12:30:11.071Z,80.10
2017-10-19T12:32:42.015Z,80.30
2017-10-19T12:35:11.868Z,80.90
2017-10-19T12:37:42.052Z,80.40
2017-10-19T12:40:11.963Z,80.00
2017-10-19T12:42:42.083Z,80.40
2017-10-19T12:45:12.407Z,80.70
2017-10-19T12:48:00.134Z,80.00
2017-10-19T12:50:49.388Z,80.30
2017-10-19T12:53:21.463Z,80.40
2017-10-19T12:55:51.596Z,80.40
2017-10-19T12:58:21.506Z,80.60
2017-10-19T13:00:52.183Z,81.10
2017-10-19T13:03:22.199Z,80.40
2017-10-19T13:05:52.332Z,80.20
2017-10-19T13:08:22.359Z,80.30
2017-10-19T13:10:52.376Z,80.30
2017-10-19T13:13:22.268Z,80.30
2017-10-19T13:15:52.234Z,80.40
2017-10-19T13:18:22.306Z,80.50
2017-10-19T13:20:52.290Z,80.30
2017-10-19T13:23:22.389Z,80.30
2017-10-19T13:25:52.528Z,80.40
2017-10-19T13:28:22.317Z,80.30
2017-10-19T13:30:53.056Z,80.40
2017-10-19T13:33:22.983Z,80.40
2017-10-19T13:35:52.855Z,80.40
2017-10-19T13:38:23.205Z,80.40
2017-10-19T13:40:54.344Z,80.40
2017-10-19T13:43:24.062Z,80.70
2017-10-19T13:45:53.974Z,80.30
2017-10-19T13:48:24.088Z,80.50
2017-10-19T13:50:55.643Z,80.40
2017-10-19T13:53:25.764Z,80.30
2017-10-19T13:55:55.676Z,80.50
2017-10-19T13:58:26.350Z,80.60
2017-10-19T14:00:56.281Z,80.60
2017-10-19T14:03:26.855Z,80.50
2017-10-19T14:05:57.042Z,80.80
2017-10-19T14:08:27.095Z,80.60
2017-10-19T14:10:57.007Z,80.50
2017-10-19T14:13:27.369Z,80.70
2017-10-19T14:15:57.450Z,80.60
2017-10-19T14:18:27.370Z,80.20
2017-10-19T14:20:57.484Z,80.30
2017-10-19T14:23:27.583Z,80.00
2017-10-19T14:25:57.726Z,79.60
2017-10-19T14:28:27.833Z,79.90
2017-10-19T14:30:57.753Z,79.10
2017-10-19T14:33:27.671Z,78.70
2017-10-19T14:35:57.787Z,78.30
2017-10-19T14:38:28.278Z,78.10
2017-10-19T14:40:58.435Z,78.00
2017-10-19T14:43:28.352Z,77.90
2017-10-19T14:45:58.474Z,77.70
2017-10-19T14:48:29.127Z,77.50
2017-10-19T14:50:59.222Z,77.40
2017-10-19T14:53:30.272Z,77.50
2017-10-19T14:56:00.789Z,77.40
2017-10-19T14:58:31.090Z,77.40
2017-10-19T15:01:01.164Z,77.40
2017-10-19T15:03:31.352Z,77.20
2017-10-19T15:06:01.677Z,77.20
2017-10-19T15:08:32.002Z,77.10
2017-10-19T15:11:01.969Z,77.10
2017-10-19T15:13:32.605Z,77.30
2017-10-19T15:16:02.767Z,77.30
2017-10-19T15:18:33.090Z,77.10
2017-10-19T15:21:04.036Z,77.10
2017-10-19T15:23:34.346Z,77.20
2017-10-19T15:26:04.455Z,77.10
2017-10-19T15:28:34.589Z,77.20
2017-10-19T15:31:04.501Z,77.10
2017-10-19T15:33:34.627Z,77.10
2017-10-19T15:36:04.539Z,77.00
2017-10-19T15:38:34.867Z,77.10
2017-10-19T15:41:04.774Z,77.20
2017-10-19T15:43:35.050Z,77.10
2017-10-19T15:46:04.898Z,77.00
2017-10-19T15:48:34.998Z,77.10
2017-10-19T15:51:13.760Z,77.10
2017-10-19T15:53:43.674Z,77.00
2017-10-19T15:56:13.375Z,77.10
2017-10-19T15:58:43.493Z,77.20
2017-10-19T16:01:14.090Z,76.90
2017-10-19T16:03:44.094Z,77.10
2017-10-19T16:06:14.057Z,77.10
2017-10-19T16:08:46.185Z,77.00
2017-10-19T16:11:16.739Z,77.00
2017-10-19T16:13:47.079Z,77.00
2017-10-19T16:16:17.196Z,77.00
2017-10-19T16:18:47.317Z,77.20
2017-10-19T16:21:17.638Z,77.30
2017-10-19T16:23:47.723Z,76.90
2017-10-19T16:26:18.033Z,77.10
2017-10-19T16:28:49.030Z,77.20
2017-10-19T16:31:19.343Z,77.30
2017-10-19T16:33:49.669Z,77.00
2017-10-19T16:36:20.838Z,76.90
2017-10-19T16:38:51.289Z,77.10
2017-10-19T16:41:21.253Z,77.10
2017-10-19T16:43:51.271Z,77.20
2017-10-19T16:46:22.004Z,77.20
2017-10-19T16:48:52.845Z,77.20
2017-10-19T16:51:23.995Z,77.20
2017-10-19T16:53:54.329Z,77.30
2017-10-19T16:56:24.448Z,77.30
2017-10-19T16:58:54.579Z,77.40
2017-10-19T17:01:25.300Z,77.30
2017-10-19T17:03:55.405Z,78.30
2017-10-19T17:06:25.399Z,77.50
2017-10-19T17:08:55.639Z,77.50
2017-10-19T17:11:26.370Z,77.40
2017-10-19T17:13:56.637Z,77.50
2017-10-19T17:16:26.708Z,77.50
2017-10-19T17:18:57.548Z,77.30
2017-10-19T17:21:27.684Z,77.20
2017-10-19T17:23:57.976Z,77.40
2017-10-19T17:26:28.941Z,77.20
2017-10-19T17:28:59.255Z,77.20
2017-10-19T17:31:30.133Z,77.30
2017-10-19T17:34:00.945Z,77.00
2017-10-19T17:36:31.228Z,77.50
2017-10-19T17:39:01.311Z,78.30
2017-10-19T17:41:31.244Z,77.40
2017-10-19T17:44:01.246Z,77.60
2017-10-19T17:46:31.941Z,77.50
2017-10-19T17:49:01.980Z,77.50
2017-10-19T17:51:33.198Z,77.30
2017-10-19T17:54:03.566Z,77.70
2017-10-19T17:56:33.638Z,77.50
2017-10-19T17:59:03.734Z,77.30
2017-10-19T18:01:35.672Z,77.60
2017-10-19T18:04:06.449Z,77.60
2017-10-19T18:06:37.526Z,77.60
2017-10-19T18:09:07.812Z,77.50
2017-10-19T18:11:37.873Z,77.70
2017-10-19T18:14:08.237Z,77.60
2017-10-19T18:16:38.575Z,77.60
2017-10-19T18:19:08.754Z,77.80
2017-10-19T18:21:39.199Z,77.80
2017-10-19T18:24:09.153Z,77.80
2017-10-19T18:26:39.697Z,77.80
2017-10-19T18:29:10.308Z,77.90
2017-10-19T18:31:41.494Z,77.70
2017-10-19T18:34:11.583Z,77.70
2017-10-19T18:36:41.796Z,77.70
2017-10-19T18:39:11.960Z,77.70
2017-10-19T18:41:42.158Z,77.80
2017-10-19T18:44:12.350Z,77.90
2017-10-19T18:46:43.286Z,77.90
2017-10-19T18:49:13.373Z,77.90
2017-10-19T18:51:43.454Z,77.80
2017-10-19T18:54:13.552Z,78.00
2017-10-19T18:56:44.188Z,77.90
2017-10-19T18:59:14.383Z,77.90
2017-10-19T19:01:45.048Z,78.20
2017-10-19T19:04:15.134Z,78.10
2017-10-19T19:06:45.427Z,78.20
2017-10-19T19:09:15.793Z,78.00
2017-10-19T19:11:45.910Z,77.90
2017-10-19T19:14:16.441Z,78.00
2017-10-19T19:16:46.758Z,77.90
2017-10-19T19:19:17.006Z,78.10
2017-10-19T19:21:47.413Z,78.10
2017-10-19T19:24:17.736Z,78.20
2017-10-19T19:26:48.069Z,78.10
2017-10-19T19:29:18.389Z,77.80
2017-10-19T19:31:48.608Z,78.20
2017-10-19T19:34:20.671Z,78.20
2017-10-19T19:36:50.785Z,78.00
2017-10-19T19:39:21.051Z,78.30
2017-10-19T19:41:52.059Z,78.00
2017-10-19T19:44:22.204Z,78.10
2017-10-19T19:46:52.139Z,78.20
2017-10-19T19:49:22.515Z,78.10
2017-10-19T19:51:52.843Z,78.10
2017-10-19T19:54:22.969Z,78.20
2017-10-19T19:56:52.909Z,78.00
2017-10-19T19:59:24.842Z,78.10
2017-10-19T20:01:56.378Z,78.00
2017-10-19T20:04:26.715Z,78.20
2017-10-19T20:06:58.093Z,78.10
2017-10-19T20:09:28.490Z,78.10
2017-10-19T20:12:00.790Z,78.30
2017-10-19T20:14:31.180Z,77.90
2017-10-19T20:17:01.687Z,78.30
2017-10-19T20:19:33.054Z,78.10
2017-10-19T20:22:03.346Z,78.20
2017-10-19T20:24:34.733Z,78.30
2017-10-19T20:27:04.975Z,78.10
2017-10-19T20:29:35.790Z,78.50
2017-10-19T20:32:05.902Z,77.90
2017-10-19T20:34:36.630Z,78.10
2017-10-19T20:37:07.172Z,78.10
2017-10-19T20:39:37.079Z,78.20
2017-10-19T20:42:07.198Z,78.10
2017-10-19T20:44:37.197Z,78.20
2017-10-19T20:47:07.263Z,78.40
2017-10-19T20:49:37.709Z,78.00
2017-10-19T20:52:07.897Z,78.20
2017-10-19T20:54:38.200Z,78.20
2017-10-19T20:57:08.464Z,78.10
2017-10-19T20:59:38.647Z,77.80
2017-10-19T21:02:08.763Z,78.30
2017-10-19T21:04:39.536Z,78.30
2017-10-19T21:07:09.412Z,78.30
2017-10-19T21:09:39.518Z,78.40
2017-10-19T21:12:09.599Z,78.10
2017-10-19T21:14:39.563Z,78.30
2017-10-19T21:17:09.480Z,78.00
2017-10-19T21:19:39.803Z,78.40
2017-10-19T21:22:10.070Z,78.30
2017-10-19T21:24:40.250Z,78.30
2017-10-19T21:27:10.290Z,78.40
2017-10-19T21:29:40.311Z,79.10
2017-10-19T21:32:11.020Z,78.60
2017-10-19T21:34:41.542Z,78.50
2017-10-19T21:37:11.673Z,78.60
2017-10-19T21:39:41.922Z,78.50
2017-10-19T21:42:11.917Z,79.20
2017-10-19T21:44:41.986Z,78.60
2017-10-19T21:47:12.971Z,78.60
2017-10-19T21:49:43.484Z,78.50
2017-10-19T21:52:14.221Z,78.60
2017-10-19T21:54:44.336Z,78.40
2017-10-19T21:57:14.621Z,78.60
2017-10-19T21:59:44.718Z,78.80
2017-10-19T22:02:14.780Z,78.50
2017-10-19T22:04:45.018Z,78.50
2017-10-19T22:07:15.226Z,78.40
2017-10-19T22:09:45.277Z,78.50
2017-10-19T22:12:15.506Z,78.50
2017-10-19T22:14:45.695Z,78.80
2017-10-19T22:17:15.611Z,78.60
2017-10-19T22:19:46.116Z,78.40
2017-10-19T22:22:16.466Z,78.30
2017-10-19T22:24:46.584Z,78.50
2017-10-19T22:27:16.618Z,78.80
2017-10-19T22:29:47.335Z,78.90
2017-10-19T22:32:18.170Z,78.80
2017-10-19T22:34:48.289Z,78.80
2017-10-19T22:37:18.931Z,79.60
2017-10-19T22:39:48.834Z,78.90
2017-10-19T22:42:18.981Z,79.00
2017-10-19T22:44:48.871Z,78.90
2017-10-19T22:47:18.784Z,78.80
2017-10-19T22:49:48.698Z,78.90
2017-10-19T22:52:18.606Z,79.00
2017-10-19T22:54:48.524Z,78.90
2017-10-19T22:57:18.441Z,79.10
2017-10-19T22:59:48.569Z,79.10
2017-10-19T23:02:18.674Z,79.10
2017-10-19T23:04:48.806Z,79.10
2017-10-19T23:07:18.683Z,79.10
2017-10-19T23:09:48.625Z,79.40
2017-10-19T23:12:18.543Z,79.10
2017-10-19T23:14:48.609Z,79.20
2017-10-19T23:17:18.525Z,79.30
2017-10-19T23:19:48.487Z,79.10
2017-10-19T23:22:18.196Z,79.40
2017-10-19T23:24:48.315Z,79.40
2017-10-19T23:27:18.238Z,79.50
2017-10-19T23:29:48.143Z,79.40
2017-10-19T23:32:18.245Z,79.40
2017-10-19T23:34:48.186Z,79.50
2017-10-19T23:37:18.296Z,79.50
2017-10-19T23:39:48.209Z,79.50
2017-10-19T23:42:18.138Z,79.60
2017-10-19T23:44:48.039Z,79.60
2017-10-19T23:47:17.946Z,79.60
2017-10-19T23:49:47.867Z,79.70
2017-10-19T23:52:18.078Z,79.70
2017-10-19T23:54:48.723Z,79.80
2017-10-19T23:57:18.430Z,79.70
2017-10-19T23:59:48.347Z,79.80
